Time;durP1;ratioP1;P1;durP2;ratioP2;P2;SDS_P1;SDS_P2;PMS_P1;PMS_P2;Temp;Humidity;BMP_temperature;BMP_pressure;BME280_temperature;BME280_humidity;BME280_pressure;Samples;Min_cycle;Max_cycle;Signal;HPM_P1;HPM_P2
2022/04/05 00:03:12;;;;;;;7.20;6.50;;;;;;;10.58;42.30;98312.81;7028907;28;20234;-76
2022/04/05 00:06:34;;;;;;;7.80;6.97;;;;;;;10.07;42.83;98300.44;7028015;28;20291;-76
2022/04/05 00:09:56;;;;;;;6.90;6.20;;;;;;;10.75;42.36;98318.53;7028002;28;20398;-76
2022/04/05 00:13:17;;;;;;;9.23;6.57;;;;;;;10.84;42.19;98301.84;7027727;28;20251;-76
2022/04/05 00:16:40;;;;;;;10.97;6.47;;;;;;;10.68;42.37;98307.78;7027265;28;20266;-76
2022/04/05 00:20:02;;;;;;;8.83;7.37;;;;;;;10.69;42.08;98292.44;7026471;28;20692;-76
2022/04/05 00:23:24;;;;;;;7.93;6.80;;;;;;;11.13;41.42;98287.72;7027841;28;20209;-76
2022/04/05 00:26:46;;;;;;;7.53;6.67;;;;;;;10.42;42.68;98294.47;7027639;28;20215;-75
2022/04/05 00:30:08;;;;;;;7.47;6.27;;;;;;;10.94;42.07;98279.78;7027938;28;20704;-75
2022/04/05 00:33:31;;;;;;;7.30;6.60;;;;;;;10.91;41.75;98280.22;7028065;28;20208;-76
2022/04/05 00:36:53;;;;;;;6.33;5.73;;;;;;;11.28;41.49;98284.69;7026972;28;20255;-76
2022/04/05 00:40:14;;;;;;;7.80;6.63;;;;;;;11.01;41.73;98275.16;7027525;28;20220;-76
2022/04/05 00:43:36;;;;;;;8.33;6.67;;;;;;;11.01;42.06;98288.66;7027567;28;20216;-76
2022/04/05 00:47:02;;;;;;;7.77;6.40;;;;;;;10.56;42.36;98282.56;7026263;28;20240;-76
2022/04/05 00:50:27;;;;;;;7.60;6.80;;;;;;;10.09;44.32;98306.47;7027277;28;20225;-76
2022/04/05 00:53:51;;;;;;;7.00;6.30;;;;;;;10.27;43.39;98295.81;7026554;28;20291;-76
2022/04/05 00:57:14;;;;;;;8.60;7.13;;;;;;;10.14;43.46;98288.63;7026585;28;20704;-76
2022/04/05 01:00:39;;;;;;;8.20;7.47;;;;;;;10.59;42.96;98274.06;7026547;28;20225;-76
2022/04/05 01:04:01;;;;;;;8.17;7.30;;;;;;;10.97;41.96;98276.63;7027299;28;20278;-76
2022/04/05 01:07:24;;;;;;;8.00;7.03;;;;;;;11.00;42.23;98263.56;7026787;28;20205;-77
2022/04/05 01:10:47;;;;;;;7.50;6.53;;;;;;;10.84;42.96;98274.91;7028154;28;20221;-77
2022/04/05 01:14:08;;;;;;;7.97;6.83;;;;;;;10.88;42.71;98256.41;7027512;28;20269;-76
2022/04/05 01:17:31;;;;;;;6.93;6.20;;;;;;;10.72;43.46;98257.78;7026796;28;20235;-76
2022/04/05 01:20:53;;;;;;;8.03;6.77;;;;;;;10.59;43.69;98230.09;7025930;28;20295;-77
2022/04/05 01:24:15;;;;;;;8.43;6.90;;;;;;;11.18;42.45;98257.38;7027531;28;20645;-76
2022/04/05 01:27:37;;;;;;;7.17;6.47;;;;;;;10.92;42.40;98246.84;7031032;28;20296;-77
2022/04/05 01:30:59;;;;;;;8.77;7.20;;;;;;;10.47;43.39;98253.41;7031285;28;20259;-76
2022/04/05 01:34:23;;;;;;;7.47;6.67;;;;;;;10.80;43.42;98251.28;7032113;28;20435;-76
2022/04/05 01:37:45;;;;;;;8.43;7.53;;;;;;;11.19;43.82;98249.06;7030234;28;20921;-76
2022/04/05 01:41:08;;;;;;;8.47;6.73;;;;;;;10.68;44.18;98247.66;7030960;28;20290;-77
2022/04/05 01:44:31;;;;;;;8.03;6.90;;;;;;;11.35;43.45;98251.19;7032266;28;20208;-76
2022/04/05 01:47:53;;;;;;;7.97;7.03;;;;;;;10.01;45.64;98239.34;7031502;28;20202;-75
2022/04/05 01:51:14;;;;;;;7.60;6.90;;;;;;;10.44;45.12;98246.56;7031662;28;20205;-76
2022/04/05 01:54:36;;;;;;;7.90;7.10;;;;;;;10.99;44.85;98234.91;7031134;28;20236;-77
2022/04/05 01:58:02;;;;;;;7.87;6.90;;;;;;;10.95;44.46;98220.25;7030744;28;20745;-76
2022/04/05 02:01:23;;;;;;;8.30;6.87;;;;;;;10.75;45.42;98195.31;7031127;28;20684;-76
2022/04/05 02:04:45;;;;;;;9.00;7.40;;;;;;;11.10;45.01;98234.19;7031167;28;20224;-76
2022/04/05 02:08:07;;;;;;;8.17;7.30;;;;;;;10.82;45.44;98228.47;7029836;28;20236;-76
2022/04/05 02:11:29;;;;;;;8.93;7.53;;;;;;;11.05;45.03;98217.84;7031364;28;20216;-78
2022/04/05 02:14:51;;;;;;;8.10;6.87;;;;;;;10.41;46.89;98219.22;7030941;28;20204;-76
2022/04/05 02:18:13;;;;;;;7.40;6.70;;;;;;;10.68;46.34;98234.97;7029975;28;20225;-76
2022/04/05 02:21:35;;;;;;;9.20;7.17;;;;;;;10.41;47.20;98214.69;7030183;28;20231;-76
2022/04/05 02:24:57;;;;;;;9.23;7.40;;;;;;;10.46;46.88;98236.38;7030914;28;20630;-77
2022/04/05 02:28:18;;;;;;;8.90;7.53;;;;;;;10.02;48.00;98227.53;7029857;28;20232;-76
2022/04/05 02:31:41;;;;;;;8.53;6.83;;;;;;;10.33;47.34;98206.03;7029918;28;20827;-76
2022/04/05 02:35:03;;;;;;;9.30;7.20;;;;;;;10.29;48.34;98208.34;7030421;28;20954;-76
2022/04/05 02:38:25;;;;;;;9.33;7.80;;;;;;;10.11;48.59;98216.31;7029407;28;20229;-77
2022/04/05 02:41:46;;;;;;;7.83;7.03;;;;;;;10.58;46.99;98223.03;7030599;28;20260;-77
2022/04/05 02:45:09;;;;;;;8.60;7.40;;;;;;;10.41;47.88;98211.16;7030926;28;20204;-75
2022/04/05 02:48:31;;;;;;;8.17;7.23;;;;;;;10.56;46.69;98195.50;7029388;28;20236;-74
2022/04/05 02:51:53;;;;;;;7.67;6.67;;;;;;;10.27;47.59;98217.69;7030330;28;20688;-74
2022/04/05 02:55:16;;;;;;;8.23;7.20;;;;;;;9.92;48.64;98225.28;7030621;28;20315;-74
2022/04/05 02:58:37;;;;;;;8.90;7.90;;;;;;;10.22;49.46;98226.41;7029410;28;20570;-74
2022/04/05 03:02:00;;;;;;;9.53;7.50;;;;;;;10.23;48.44;98211.06;7030037;28;20200;-75
2022/04/05 03:05:23;;;;;;;7.93;6.93;;;;;;;10.28;49.65;98222.03;7030151;28;20201;-78
2022/04/05 03:08:46;;;;;;;9.27;7.47;;;;;;;10.52;49.43;98223.91;7028889;28;20339;-77
2022/04/05 03:12:08;;;;;;;8.43;6.70;;;;;;;10.62;48.06;98214.28;7029794;28;20563;-77
2022/04/05 03:15:30;;;;;;;9.67;7.97;;;;;;;10.38;48.18;98172.00;7028833;28;20222;-76
2022/04/05 03:18:53;;;;;;;8.63;7.43;;;;;;;10.72;48.48;98230.81;7027235;28;20715;-78
2022/04/05 03:22:17;;;;;;;9.57;7.33;;;;;;;10.90;48.09;98214.69;7029833;28;20186;-77
2022/04/05 03:25:38;;;;;;;10.37;8.07;;;;;;;10.86;48.69;98220.75;7028563;28;20203;-77
2022/04/05 03:29:00;;;;;;;8.80;7.90;;;;;;;10.27;49.64;98223.06;7029431;28;20362;-77
2022/04/05 03:32:21;;;;;;;8.73;7.40;;;;;;;10.72;48.68;98228.13;7028759;28;20299;-77
2022/04/05 03:35:43;;;;;;;9.40;7.87;;;;;;;9.92;51.38;98228.00;7028494;28;20229;-77
2022/04/05 03:39:06;;;;;;;8.97;8.07;;;;;;;10.18;51.30;98235.13;7029338;28;20382;-77
2022/04/05 03:42:27;;;;;;;9.17;8.27;;;;;;;10.11;51.84;98235.16;7029088;28;20726;-77
2022/04/05 03:45:49;;;;;;;9.40;7.87;;;;;;;9.70;51.89;98236.59;7028844;28;20677;-76
2022/04/05 03:49:11;;;;;;;9.13;8.07;;;;;;;10.02;51.70;98217.59;7028240;28;20259;-76
2022/04/05 03:52:33;;;;;;;8.90;8.03;;;;;;;10.31;51.81;98222.41;7028003;28;20212;-77
2022/04/05 03:55:56;;;;;;;9.17;8.27;;;;;;;10.48;50.78;98214.63;7029099;28;20264;-77
2022/04/05 03:59:17;;;;;;;8.43;7.63;;;;;;;10.48;50.60;98211.91;7028515;28;20228;-76
2022/04/05 04:02:39;;;;;;;9.77;8.20;;;;;;;10.58;50.17;98213.06;7027960;28;20208;-76
2022/04/05 04:06:00;;;;;;;9.63;8.00;;;;;;;10.07;51.83;98201.63;7027859;28;20249;-77
2022/04/05 04:09:22;;;;;;;12.23;8.13;;;;;;;10.74;50.88;98203.63;7026859;28;20665;-77
2022/04/05 04:12:46;;;;;;;10.03;7.83;;;;;;;10.49;50.92;98202.78;7027574;28;20209;-76
2022/04/05 04:16:08;;;;;;;9.13;6.90;;;;;;;9.41;52.37;98197.59;7026823;28;20283;-77
2022/04/05 04:19:30;;;;;;;9.30;7.70;;;;;;;10.32;51.33;98198.97;6999074;28;20225;-77
2022/04/05 04:22:51;;;;;;;8.93;7.30;;;;;;;9.86;51.30;98204.63;7015881;28;20198;-77
2022/04/05 04:26:13;;;;;;;10.50;8.20;;;;;;;10.49;51.29;98194.69;7023405;28;20385;-77
2022/04/05 04:29:36;;;;;;;11.73;8.70;;;;;;;10.22;51.25;98196.75;7022610;28;20232;-77
2022/04/05 04:32:57;;;;;;;9.23;7.90;;;;;;;10.05;51.69;98194.81;7016769;28;20303;-77
2022/04/05 04:36:19;;;;;;;8.80;7.77;;;;;;;10.13;52.54;98189.16;7026134;28;20225;-74
2022/04/05 04:39:40;;;;;;;10.17;7.80;;;;;;;10.21;52.05;98197.81;7011902;28;20229;-76
2022/04/05 04:43:02;;;;;;;7.87;7.00;;;;;;;9.89;51.89;98171.88;7017692;28;20335;-76
2022/04/05 04:46:25;;;;;;;10.10;7.60;;;;;;;10.29;51.10;98189.47;7015875;28;20204;-76
2022/04/05 04:49:47;;;;;;;9.40;7.53;;;;;;;10.25;51.75;98182.88;7020658;28;20357;-76
2022/04/05 04:53:08;;;;;;;8.43;7.60;;;;;;;10.23;51.47;98184.13;7014511;28;20204;-76
2022/04/05 04:56:30;;;;;;;9.53;7.27;;;;;;;10.38;50.95;98204.31;7018943;28;20229;-76
2022/04/05 04:59:52;;;;;;;8.73;6.63;;;;;;;9.90;51.51;98189.69;7025687;28;20222;-76
2022/04/05 05:03:18;;;;;;;10.17;7.40;;;;;;;10.05;52.87;98189.44;7029353;28;20204;-76
2022/04/05 05:06:39;;;;;;;9.53;7.53;;;;;;;10.36;51.68;98201.03;7006826;28;20276;-77
2022/04/05 05:10:01;;;;;;;7.83;6.70;;;;;;;10.34;50.97;98213.88;7018722;28;20875;-76
2022/04/05 05:13:22;;;;;;;8.57;7.67;;;;;;;10.45;51.56;98204.28;7031393;28;20213;-77
2022/04/05 05:16:44;;;;;;;8.43;7.37;;;;;;;10.30;50.79;98198.38;7027321;28;20304;-76
2022/04/05 05:20:08;;;;;;;7.83;6.73;;;;;;;9.55;51.91;98193.78;7021588;28;20229;-76
2022/04/05 05:23:30;;;;;;;9.90;8.13;;;;;;;10.01;52.81;98193.56;7036933;28;20208;-77
2022/04/05 05:26:52;;;;;;;8.20;7.17;;;;;;;10.20;51.80;98209.63;7041093;28;20211;-82
2022/04/05 05:30:14;;;;;;;8.20;7.17;;;;;;;10.13;51.99;98206.16;7042398;28;20725;-81
2022/04/05 05:33:35;;;;;;;8.80;7.30;;;;;;;10.21;52.66;98183.53;7045035;28;20201;-83
2022/04/05 05:36:58;;;;;;;8.90;7.93;;;;;;;10.53;51.80;98215.63;7045188;28;20229;-83
2022/04/05 05:40:20;;;;;;;9.83;7.93;;;;;;;10.06;51.12;98215.31;7045034;28;20255;-82
2022/04/05 05:43:45;;;;;;;8.97;7.93;;;;;;;10.00;53.17;98226.91;7042783;28;20208;-83
2022/04/05 05:47:09;;;;;;;9.60;7.77;;;;;;;9.95;52.92;98240.19;7045579;28;20284;-80
2022/04/05 05:50:30;;;;;;;10.97;8.23;;;;;;;9.80;53.82;98210.84;7037177;28;20712;-77
2022/04/05 05:53:53;;;;;;;8.37;7.47;;;;;;;9.78;52.83;98229.09;7010901;28;20212;-78
2022/04/05 05:57:15;;;;;;;8.13;7.33;;;;;;;9.92;53.06;98219.91;7004807;28;20260;-75
2022/04/05 06:00:37;;;;;;;8.67;7.63;;;;;;;10.55;52.41;98227.00;7006952;28;20224;-81
2022/04/05 06:03:58;;;;;;;9.33;7.53;;;;;;;10.13;52.91;98235.78;7006547;28;20255;-84
2022/04/05 06:07:20;;;;;;;10.90;8.13;;;;;;;10.24;53.23;98237.81;7005902;28;20214;-78
2022/04/05 06:10:43;;;;;;;8.93;8.03;;;;;;;9.88;53.95;98237.56;7006160;28;20237;-76
2022/04/05 06:14:04;;;;;;;9.13;7.97;;;;;;;10.08;53.70;98235.59;7005646;28;20206;-75
2022/04/05 06:17:26;;;;;;;9.17;7.93;;;;;;;10.29;52.93;98229.91;7004670;28;20318;-76
2022/04/05 06:20:48;;;;;;;11.17;7.47;;;;;;;10.22;53.23;98222.88;7004812;28;20245;-75
2022/04/05 06:24:09;;;;;;;8.73;7.40;;;;;;;10.20;53.73;98247.34;7004641;28;20193;-75
2022/04/05 06:27:32;;;;;;;12.20;9.17;;;;;;;10.60;53.53;98229.03;7003616;28;20293;-77
2022/04/05 06:30:54;;;;;;;8.77;7.87;;;;;;;10.58;52.53;98240.03;7004057;28;20222;-76
2022/04/05 06:34:15;;;;;;;7.93;6.63;;;;;;;10.44;52.54;98233.09;7004290;28;20205;-76
2022/04/05 06:37:37;;;;;;;10.07;7.80;;;;;;;10.37;53.03;98240.41;7021544;28;20247;-76
2022/04/05 06:41:00;;;;;;;8.07;6.57;;;;;;;10.14;52.93;98241.97;7031886;28;20227;-77
2022/04/05 06:44:23;;;;;;;7.83;7.03;;;;;;;10.12;53.78;98233.31;7030558;28;20205;-76
2022/04/05 06:47:45;;;;;;;7.50;6.77;;;;;;;9.84;54.70;98228.25;7031370;28;20213;-76
2022/04/05 06:51:07;;;;;;;7.13;6.37;;;;;;;10.44;54.34;98245.72;7031784;28;20212;-77
2022/04/05 06:54:28;;;;;;;7.93;6.87;;;;;;;10.08;53.76;98238.31;7032565;28;20212;-79
2022/04/05 06:57:50;;;;;;;9.87;7.90;;;;;;;10.00;54.93;98235.00;7031584;28;20713;-77
2022/04/05 07:01:13;;;;;;;8.80;7.33;;;;;;;10.22;53.53;98230.97;7030329;28;20357;-78
2022/04/05 07:04:36;;;;;;;11.00;7.30;;;;;;;9.73;55.40;98204.69;7037770;28;20203;-81
2022/04/05 07:07:58;;;;;;;7.67;6.50;;;;;;;9.72;55.19;98235.34;7025065;28;20296;-82
2022/04/05 07:11:20;;;;;;;6.90;6.20;;;;;;;10.07;55.72;98238.50;7043294;28;20293;-80
2022/04/05 07:14:42;;;;;;;7.90;6.40;;;;;;;10.40;54.01;98226.47;7042537;28;20207;-82
2022/04/05 07:18:05;;;;;;;6.80;6.20;;;;;;;10.14;54.02;98229.34;7045633;28;20247;-82
2022/04/05 07:21:27;;;;;;;9.73;7.20;;;;;;;9.98;54.71;98245.16;7039607;28;20201;-80
2022/04/05 07:24:48;;;;;;;7.07;6.33;;;;;;;9.95;54.64;98237.50;7033144;28;20193;-80
2022/04/05 07:28:10;;;;;;;11.90;6.60;;;;;;;10.63;53.40;98239.41;7028102;28;20223;-79
2022/04/05 07:31:32;;;;;;;8.00;7.10;;;;;;;10.88;52.85;98221.34;7025183;28;20201;-80
2022/04/05 07:34:56;;;;;;;6.93;6.23;;;;;;;10.37;53.53;98218.84;7036254;28;20204;-79
2022/04/05 07:38:18;;;;;;;8.30;6.70;;;;;;;10.86;52.95;98243.13;7041866;28;20236;-81
2022/04/05 07:41:40;;;;;;;9.10;7.03;;;;;;;10.56;53.18;98228.66;7038337;28;20207;-81
2022/04/05 07:45:09;;;;;;;7.30;6.20;;;;;;;11.03;52.62;98232.63;7021153;28;20205;-80
2022/04/05 07:48:31;;;;;;;8.07;6.27;;;;;;;10.36;52.39;98216.38;7036423;28;20266;-81
2022/04/05 07:51:54;;;;;;;6.30;5.70;;;;;;;9.49;55.91;98216.19;7037970;28;20238;-79
2022/04/05 07:55:16;;;;;;;7.53;5.80;;;;;;;10.12;55.73;98217.97;7042087;28;20607;-79
2022/04/05 07:58:38;;;;;;;9.03;6.57;;;;;;;10.62;53.96;98216.19;7041004;28;20309;-80
2022/04/05 08:01:59;;;;;;;8.73;6.67;;;;;;;10.61;54.28;98209.13;7037428;28;20212;-79
2022/04/05 08:05:23;;;;;;;7.50;6.60;;;;;;;10.72;54.00;98222.72;7032820;28;20229;-79
2022/04/05 08:08:46;;;;;;;8.07;7.13;;;;;;;10.88;53.59;98226.75;7031696;28;20717;-76
2022/04/05 08:12:09;;;;;;;9.13;6.67;;;;;;;11.01;54.22;98229.31;7036956;28;20209;-80
2022/04/05 08:15:30;;;;;;;6.60;5.90;;;;;;;11.34;52.38;98217.13;7033718;28;20209;-77
2022/04/05 08:18:52;;;;;;;8.53;6.30;;;;;;;11.30;52.77;98231.31;7030733;28;20305;-78
2022/04/05 08:22:14;;;;;;;7.13;6.07;;;;;;;11.04;52.58;98223.47;7032221;28;20267;-79
2022/04/05 08:25:37;;;;;;;12.00;9.97;;;;;;;11.12;54.41;98229.41;7033105;28;20217;-82
2022/04/05 08:28:59;;;;;;;8.77;6.83;;;;;;;11.49;52.67;98239.19;7031778;28;20263;-78
2022/04/05 08:32:20;;;;;;;6.53;5.83;;;;;;;11.09;52.26;98234.44;7034608;28;20268;-78
2022/04/05 08:35:42;;;;;;;7.93;6.90;;;;;;;11.46;53.62;98252.31;7036678;28;20204;-79
2022/04/05 08:39:04;;;;;;;11.73;9.73;;;;;;;11.84;52.42;98245.66;7037003;28;20235;-79
2022/04/05 08:42:27;;;;;;;9.00;6.70;;;;;;;11.51;53.71;98239.78;7011363;28;20732;-79
2022/04/05 08:45:56;;;;;;;8.77;6.87;;;;;;;11.53;54.50;98255.78;7014729;28;20220;-80
2022/04/05 08:49:17;;;;;;;7.00;6.30;;;;;;;11.26;53.99;98246.28;7035818;28;20224;-77
2022/04/05 08:52:39;;;;;;;8.60;6.33;;;;;;;11.73;53.04;98243.72;7034922;28;20274;-78
2022/04/05 08:56:01;;;;;;;8.80;6.70;;;;;;;11.67;53.48;98254.59;7034454;28;20211;-78
2022/04/05 08:59:24;;;;;;;7.07;5.97;;;;;;;11.84;55.12;98255.63;7030369;28;20710;-78
2022/04/05 09:02:57;;;;;;;6.83;6.10;;;;;;;12.26;53.00;98258.22;7022876;28;20222;-79
2022/04/05 09:06:26;;;;;;;6.90;6.20;;;;;;;12.06;52.62;98243.31;7034643;28;20213;-80
2022/04/05 09:10:07;;;;;;;6.43;5.73;;;;;;;11.29;54.21;98245.84;7034823;28;20228;-80
2022/04/05 09:13:28;;;;;;;6.20;5.63;;;;;;;11.79;54.40;98247.38;7035036;28;20196;-79
2022/04/05 09:17:04;;;;;;;11.13;5.73;;;;;;;11.90;53.87;98233.13;7033789;28;20228;-79
2022/04/05 09:20:27;;;;;;;9.03;6.53;;;;;;;12.27;52.84;98245.53;7035274;28;20236;-80
2022/04/05 09:23:52;;;;;;;8.40;6.53;;;;;;;12.36;52.58;98244.13;7034699;28;20264;-80
2022/04/05 09:27:14;;;;;;;8.67;6.87;;;;;;;12.50;53.01;98243.72;7034350;28;20216;-80
2022/04/05 09:30:36;;;;;;;8.00;6.30;;;;;;;12.50;52.55;98242.88;7034826;28;20310;-80
2022/04/05 09:34:08;;;;;;;8.37;6.33;;;;;;;12.49;53.12;98227.72;7034899;28;20205;-79
2022/04/05 09:37:29;;;;;;;6.67;5.33;;;;;;;12.36;52.70;98250.38;7034441;28;20227;-79
2022/04/05 09:40:52;;;;;;;7.23;6.23;;;;;;;12.71;52.20;98247.75;7033923;28;20251;-78
2022/04/05 09:44:15;;;;;;;9.77;6.43;;;;;;;12.71;52.92;98248.59;7033990;28;20208;-77
2022/04/05 09:47:37;;;;;;;8.23;6.40;;;;;;;12.56;52.58;98240.09;7032382;28;20205;-80
2022/04/05 09:51:05;;;;;;;9.97;6.67;;;;;;;12.55;52.72;98248.41;7031259;28;20593;-77
2022/04/05 09:54:28;;;;;;;8.93;6.00;;;;;;;12.43;52.67;98253.81;7033303;28;20301;-77
2022/04/05 09:57:50;;;;;;;8.27;5.80;;;;;;;12.04;53.27;98250.81;7031666;28;20235;-76
2022/04/05 10:01:12;;;;;;;11.00;6.33;;;;;;;12.72;52.86;98246.69;7033285;28;20688;-78
2022/04/05 10:04:35;;;;;;;6.10;5.17;;;;;;;13.20;51.33;98245.50;7032803;28;20205;-74
2022/04/05 10:07:59;;;;;;;6.33;5.60;;;;;;;13.15;51.72;98245.38;7031920;28;20205;-79
2022/04/05 10:11:20;;;;;;;6.73;5.10;;;;;;;13.26;50.57;98251.84;7032674;28;20295;-75
2022/04/05 10:14:42;;;;;;;7.67;6.33;;;;;;;12.83;52.89;98259.44;7033039;28;20662;-77
2022/04/05 10:18:06;;;;;;;6.67;5.97;;;;;;;13.03;53.37;98235.59;7005001;28;20233;-76
2022/04/05 10:21:34;;;;;;;7.13;5.80;;;;;;;13.24;53.43;98262.09;7005549;28;20205;-79
2022/04/05 10:24:57;;;;;;;6.07;5.47;;;;;;;12.94;52.74;98256.75;7005549;28;20204;-78
2022/04/05 10:28:23;;;;;;;6.13;5.53;;;;;;;13.35;52.88;98245.88;7004517;28;20249;-78
2022/04/05 10:31:53;;;;;;;6.83;5.93;;;;;;;13.21;53.14;98244.44;7007789;28;20224;-79
2022/04/05 10:35:15;;;;;;;8.03;5.93;;;;;;;13.09;53.34;98259.06;7031210;28;20291;-78
2022/04/05 10:38:37;;;;;;;6.53;5.57;;;;;;;13.04;53.41;98248.09;7004805;28;20230;-78
2022/04/05 10:42:21;;;;;;;6.20;5.27;;;;;;;13.01;53.53;98237.72;7006298;28;20235;-75
2022/04/05 10:45:45;;;;;;;6.77;5.60;;;;;;;13.26;54.01;98231.03;7003796;28;20577;-75
2022/04/05 10:49:08;;;;;;;7.53;5.83;;;;;;;13.59;52.86;98243.97;7005782;28;20230;-77
2022/04/05 10:52:31;;;;;;;11.23;8.20;;;;;;;13.59;52.82;98246.66;7004898;28;20617;-78
2022/04/05 10:56:15;;;;;;;7.77;6.60;;;;;;;13.70;52.94;98248.53;7003148;28;20212;-76
2022/04/05 10:59:49;;;;;;;11.40;6.07;;;;;;;13.79;52.03;98237.09;7009902;28;20233;-78
2022/04/05 11:03:11;;;;;;;8.07;5.93;;;;;;;13.76;50.97;98237.56;7031287;28;20666;-80
2022/04/05 11:07:11;;;;;;;7.20;6.07;;;;;;;13.84;52.10;98241.78;7026969;28;20209;-77
2022/04/05 11:10:45;;;;;;;7.53;5.63;;;;;;;13.37;52.43;98226.66;7015690;28;20253;-76
2022/04/05 11:14:07;;;;;;;6.73;6.03;;;;;;;13.52;52.49;98232.44;7005482;28;20235;-80
2022/04/05 11:17:30;;;;;;;5.67;5.03;;;;;;;13.39;52.83;98240.81;7010823;28;20767;-77
2022/04/05 11:20:54;;;;;;;8.53;6.27;;;;;;;13.69;52.89;98241.47;7005972;28;20686;-77
2022/04/05 11:24:50;;;;;;;8.17;6.03;;;;;;;13.92;51.24;98223.25;7029954;28;20237;-78
2022/04/05 11:28:14;;;;;;;6.43;5.80;;;;;;;13.51;52.45;98225.38;7031638;28;20633;-77
2022/04/05 11:31:40;;;;;;;10.63;8.10;;;;;;;14.13;52.37;98224.50;7032192;28;20202;-77
2022/04/05 11:35:03;;;;;;;9.63;7.30;;;;;;;13.39;53.82;98227.28;7031897;28;20249;-77
2022/04/05 11:38:30;;;;;;;7.57;5.70;;;;;;;14.03;52.75;98225.13;7030678;28;20226;-77
2022/04/05 11:41:58;;;;;;;6.93;5.80;;;;;;;14.14;53.27;98218.00;7030935;28;20239;-76
2022/04/05 11:45:21;;;;;;;8.83;6.07;;;;;;;14.51;51.86;98227.44;7031863;28;20263;-76
2022/04/05 11:48:44;;;;;;;7.37;4.90;;;;;;;14.37;52.34;98223.34;7013143;28;20225;-76
2022/04/05 11:52:10;;;;;;;5.80;5.10;;;;;;;14.72;52.45;98224.00;7003153;28;20745;-76
2022/04/05 11:59:11;;;;;;;5.93;5.33;;;;;;;14.42;53.13;98223.44;7003103;28;20731;-76
2022/04/05 12:02:33;;;;;;;6.00;5.10;;;;;;;14.61;53.33;98230.31;7003452;28;20210;-75
2022/04/05 12:05:55;;;;;;;5.97;5.37;;;;;;;14.47;53.24;98224.38;7003027;28;20215;-76
2022/04/05 12:09:19;;;;;;;5.23;4.70;;;;;;;14.87;51.91;98219.63;7002561;28;20249;-76
2022/04/05 12:12:42;;;;;;;5.83;4.80;;;;;;;14.83;51.47;98223.94;7028244;28;20207;-76
2022/04/05 12:16:06;;;;;;;5.60;5.00;;;;;;;14.82;52.40;98221.47;7029786;28;20210;-76
2022/04/05 12:19:29;;;;;;;6.23;5.00;;;;;;;14.83;51.16;98202.22;7030825;28;20245;-77
2022/04/05 12:22:50;;;;;;;6.73;5.97;;;;;;;15.04;50.66;98217.75;7030402;28;20227;-76
2022/04/05 12:26:15;;;;;;;6.80;5.23;;;;;;;14.80;51.95;98210.84;7029973;28;20218;-77
2022/04/05 12:29:39;;;;;;;6.83;5.87;;;;;;;15.11;50.77;98206.72;7029437;28;20821;-76
2022/04/05 12:33:03;;;;;;;7.97;5.80;;;;;;;15.05;51.41;98210.44;7030402;28;20217;-77
2022/04/05 12:36:26;;;;;;;4.97;4.17;;;;;;;14.31;52.21;98211.59;7030436;28;20624;-76
2022/04/05 12:39:50;;;;;;;5.93;4.83;;;;;;;14.47;53.19;98196.44;7029892;28;20237;-76
2022/04/05 12:43:17;;;;;;;6.80;5.27;;;;;;;14.80;50.82;98213.56;7030329;28;20239;-76
2022/04/05 12:46:44;;;;;;;5.30;4.80;;;;;;;14.54;52.36;98197.09;7029542;28;20264;-77
2022/04/05 12:50:06;;;;;;;6.20;4.90;;;;;;;13.75;52.86;98189.84;7029945;28;20753;-78
2022/04/05 12:53:28;;;;;;;6.03;5.00;;;;;;;14.41;52.75;98216.38;7030680;28;20298;-77
2022/04/05 12:56:50;;;;;;;5.70;5.00;;;;;;;14.73;51.54;98204.75;7025369;28;20203;-76
2022/04/05 13:00:16;;;;;;;5.20;4.70;;;;;;;14.73;51.50;98203.91;7014432;28;20237;-76
2022/04/05 13:03:38;;;;;;;5.87;5.27;;;;;;;14.42;51.30;98208.00;7002496;28;20202;-77
2022/04/05 13:07:04;;;;;;;4.90;4.37;;;;;;;14.33;51.95;98203.22;7001960;28;20194;-76
2022/04/05 13:10:32;;;;;;;5.40;4.90;;;;;;;14.06;51.09;98202.97;7002734;28;20256;-77
2022/04/05 13:14:05;;;;;;;8.03;4.80;;;;;;;14.19;51.17;98197.28;7030019;28;20301;-77
2022/04/05 13:17:32;;;;;;;5.90;4.93;;;;;;;14.52;50.74;98196.53;7030106;28;20221;-77
2022/04/05 13:21:03;;;;;;;5.47;4.97;;;;;;;14.12;52.05;98202.00;7031901;28;20227;-76
2022/04/05 13:24:27;;;;;;;5.07;4.67;;;;;;;14.78;50.39;98198.59;7035933;28;20222;-76
2022/04/05 13:27:59;;;;;;;5.07;4.43;;;;;;;14.81;49.00;98203.53;7034557;28;20215;-77
2022/04/05 13:31:21;;;;;;;8.07;5.00;;;;;;;14.42;50.55;98197.16;7035231;28;20200;-78
2022/04/05 13:34:45;;;;;;;5.00;4.50;;;;;;;14.73;50.25;98195.78;7031005;28;20212;-77
2022/04/05 13:38:07;;;;;;;6.63;4.23;;;;;;;14.81;49.71;98193.47;7010916;28;20230;-78
2022/04/05 13:41:29;;;;;;;5.33;4.83;;;;;;;14.78;50.68;98188.56;7022063;28;20202;-76
2022/04/05 13:44:51;;;;;;;5.80;4.73;;;;;;;15.23;49.33;98188.44;7017237;28;20216;-75
2022/04/05 13:48:12;;;;;;;5.57;4.97;;;;;;;15.09;50.03;98184.41;7033984;28;20220;-77
2022/04/05 13:51:35;;;;;;;5.37;4.87;;;;;;;14.96;50.45;98179.34;7008345;28;20336;-79
2022/04/05 13:54:57;;;;;;;5.23;4.73;;;;;;;15.31;49.72;98179.88;7031436;28;20218;-78
2022/04/05 13:58:19;;;;;;;5.00;4.50;;;;;;;15.16;49.37;98163.38;7032930;28;20228;-77
2022/04/05 14:01:41;;;;;;;5.07;4.57;;;;;;;15.32;49.63;98165.19;7026680;28;20243;-78
2022/04/05 14:05:03;;;;;;;8.27;6.20;;;;;;;15.49;49.25;98168.72;7031540;28;20205;-79
2022/04/05 14:08:26;;;;;;;8.53;6.30;;;;;;;15.44;49.87;98153.19;7031273;28;20237;-79
2022/04/05 14:11:49;;;;;;;6.87;4.83;;;;;;;15.20;48.99;98167.22;7022011;28;20278;-79
2022/04/05 14:15:11;;;;;;;6.60;4.70;;;;;;;15.16;50.72;98163.38;7006983;28;20572;-79
2022/04/05 14:18:33;;;;;;;5.80;4.40;;;;;;;15.27;50.86;98141.53;7006007;28;20234;-79
2022/04/05 14:21:55;;;;;;;4.77;4.27;;;;;;;15.66;49.52;98155.91;7005815;28;20228;-75
2022/04/05 14:25:19;;;;;;;6.50;4.37;;;;;;;15.50;50.38;98165.78;7033462;28;20210;-78
2022/04/05 14:28:42;;;;;;;4.77;3.70;;;;;;;14.88;51.58;98152.63;7033147;28;20224;-79
2022/04/05 14:32:05;;;;;;;3.90;3.60;;;;;;;15.13;51.25;98151.09;7033018;28;20200;-78
2022/04/05 14:35:26;;;;;;;4.53;4.10;;;;;;;15.07;51.10;98151.28;7033932;28;20218;-79
2022/04/05 14:38:49;;;;;;;5.50;4.50;;;;;;;15.60;49.69;98146.91;7005388;28;20227;-78
2022/04/05 14:42:12;;;;;;;3.73;3.43;;;;;;;15.31;49.35;98145.38;7012190;28;20210;-79
2022/04/05 14:45:33;;;;;;;5.07;3.80;;;;;;;15.00;51.06;98143.31;7018920;28;20203;-78
2022/04/05 14:48:55;;;;;;;4.93;3.50;;;;;;;14.99;51.06;98135.41;7027823;28;20217;-77
2022/04/05 14:52:17;;;;;;;5.00;3.87;;;;;;;15.12;50.39;98145.91;7033466;28;20210;-75
2022/04/05 14:55:38;;;;;;;4.47;3.53;;;;;;;15.30;49.52;98142.91;7032788;28;20213;-79
2022/04/05 14:59:01;;;;;;;3.83;3.53;;;;;;;15.15;50.05;98142.72;7033550;28;20325;-75
2022/04/05 15:02:23;;;;;;;4.00;3.60;;;;;;;15.45;49.31;98140.44;7033602;28;20210;-78
2022/04/05 15:05:44;;;;;;;4.17;3.37;;;;;;;15.01;50.29;98130.56;7032589;28;20212;-77
2022/04/05 15:09:06;;;;;;;3.73;3.43;;;;;;;15.04;49.94;98140.94;7028623;28;20329;-78
2022/04/05 15:12:28;;;;;;;4.13;3.70;;;;;;;14.70;51.02;98139.31;7005864;28;20275;-78
2022/04/05 15:15:50;;;;;;;3.93;3.53;;;;;;;15.26;50.20;98141.75;7019211;28;20215;-76
2022/04/05 15:19:12;;;;;;;4.97;4.27;;;;;;;15.13;50.53;98132.09;7014671;28;20231;-75
2022/04/05 15:22:34;;;;;;;6.47;5.33;;;;;;;14.87;51.13;98140.13;7018494;28;20202;-77
2022/04/05 15:25:56;;;;;;;6.67;5.37;;;;;;;14.54;52.22;98148.25;7031264;28;20206;-77
2022/04/05 15:29:17;;;;;;;5.57;4.13;;;;;;;14.79;50.87;98119.66;7031834;28;20225;-77
2022/04/05 15:32:41;;;;;;;5.27;4.40;;;;;;;14.62;52.14;98137.03;7031517;28;20843;-75
2022/04/05 15:36:03;;;;;;;5.03;3.80;;;;;;;14.67;51.54;98128.94;7031273;28;20205;-76
2022/04/05 15:39:24;;;;;;;5.00;4.30;;;;;;;14.86;51.27;98135.78;7031429;28;20259;-77
2022/04/05 15:42:46;;;;;;;5.10;4.20;;;;;;;14.94;51.45;98135.34;7032111;28;20208;-77
2022/04/05 15:46:08;;;;;;;6.00;5.27;;;;;;;15.38;49.76;98137.91;7030276;28;20213;-77
2022/04/05 15:49:31;;;;;;;7.17;5.20;;;;;;;15.15;51.10;98138.09;7030775;28;20301;-76
2022/04/05 15:52:53;;;;;;;5.97;4.50;;;;;;;14.76;51.82;98147.25;7031657;28;20202;-77
2022/04/05 15:56:15;;;;;;;5.93;4.23;;;;;;;14.93;51.96;98148.06;7030036;28;20205;-77
2022/04/05 15:59:36;;;;;;;4.33;3.90;;;;;;;14.43;52.68;98150.00;7030668;28;20240;-77
2022/04/05 16:02:58;;;;;;;4.80;4.00;;;;;;;14.79;51.46;98145.94;7030829;28;20294;-77